createdAt,value
2022-11-24T00:02:01.917Z,96667.77
2022-11-24T00:04:06.308Z,96669.41
2022-11-24T00:06:11.326Z,96672.88
2022-11-24T00:08:14.887Z,96672.38
2022-11-24T00:10:17.833Z,96673.92
2022-11-24T00:12:20.710Z,96678.89
2022-11-24T00:14:23.562Z,96685.48
2022-11-24T00:16:29.199Z,96686.13
2022-11-24T00:18:32.125Z,96688.23
2022-11-24T00:20:34.934Z,96692.54
2022-11-24T00:22:37.714Z,96696.86
2022-11-24T00:24:40.742Z,96703.94
2022-11-24T00:26:43.528Z,96703.59
2022-11-24T00:28:48.209Z,96706.42
2022-11-24T00:30:51.004Z,96710.98
2022-11-24T00:32:53.845Z,96712.13
2022-11-24T00:34:56.696Z,96715.30
2022-11-24T00:36:59.626Z,96719.03
2022-11-24T00:39:10.352Z,96722.89
2022-11-24T00:41:13.979Z,96724.61
2022-11-24T00:43:16.832Z,96726.29
2022-11-24T00:45:19.642Z,96732.32
2022-11-24T00:47:22.507Z,96734.19
2022-11-24T00:49:25.412Z,96737.80
2022-11-24T00:51:30.421Z,96737.15
2022-11-24T00:53:33.944Z,96737.23
2022-11-24T00:55:36.762Z,96738.40
2022-11-24T00:57:39.496Z,96739.23
2022-11-24T00:59:42.400Z,96737.46
2022-11-24T01:01:45.366Z,96734.84
2022-11-24T01:03:48.646Z,96737.10
2022-11-24T01:05:51.436Z,96737.34
2022-11-24T01:07:54.239Z,96737.24
2022-11-24T01:09:57.196Z,96743.23
2022-11-24T01:12:04.198Z,96744.15
2022-11-24T01:14:07.076Z,96742.13
2022-11-24T01:16:23.968Z,96740.20
2022-11-24T01:18:27.450Z,96741.98
2022-11-24T01:20:30.796Z,96741.73
2022-11-24T01:22:35.081Z,96741.80
2022-11-24T01:24:37.858Z,96744.08
2022-11-24T01:26:40.791Z,96745.85
2022-11-24T01:28:47.100Z,96746.59
2022-11-24T01:31:00.256Z,96746.95
2022-11-24T01:33:03.187Z,96747.96
2022-11-24T01:35:07.052Z,96750.35
2022-11-24T01:37:10.030Z,96752.54
2022-11-24T01:39:13.573Z,96751.65
2022-11-24T01:41:27.368Z,96758.64
2022-11-24T01:43:30.358Z,96758.87
2022-11-24T01:45:40.813Z,96761.91
2022-11-24T01:47:44.443Z,96763.09
2022-11-24T01:49:51.760Z,96763.86
2022-11-24T01:52:20.051Z,96762.61
2022-11-24T01:54:28.528Z,96767.16
2022-11-24T01:56:33.648Z,96765.16
2022-11-24T01:58:38.074Z,96763.04
2022-11-24T02:00:44.234Z,96766.98
2022-11-24T02:02:47.196Z,96769.09
2022-11-24T02:04:51.123Z,96768.67
2022-11-24T02:06:57.737Z,96768.43
2022-11-24T02:09:07.390Z,96768.11
2022-11-24T02:11:10.301Z,96772.75
2022-11-24T02:13:14.945Z,96772.52
2022-11-24T02:15:18.892Z,96772.55
2022-11-24T02:17:22.457Z,96770.46
2022-11-24T02:19:40.323Z,96769.55
2022-11-24T02:21:43.267Z,96771.31
2022-11-24T02:24:22.855Z,96774.73
2022-11-24T02:26:41.432Z,96770.14
2022-11-24T02:28:44.471Z,96772.23
2022-11-24T02:30:48.594Z,96772.05
2022-11-24T02:32:52.684Z,96771.36
2022-11-24T02:35:04.255Z,96773.52
2022-11-24T02:37:07.427Z,96767.02
2022-11-24T02:39:15.286Z,96772.05
2022-11-24T02:41:21.745Z,96773.81
2022-11-24T02:43:24.619Z,96774.12
2022-11-24T02:45:28.670Z,96770.95
2022-11-24T02:47:31.561Z,96775.16
2022-11-24T02:49:34.446Z,96775.77
2022-11-24T02:51:37.259Z,96776.02
2022-11-24T02:53:40.185Z,96775.69
2022-11-24T02:55:42.979Z,96776.89
2022-11-24T02:57:46.119Z,96777.73
2022-11-24T02:59:49.007Z,96783.89
2022-11-24T03:01:51.997Z,96786.21
2022-11-24T03:03:54.760Z,96790.27
2022-11-24T03:05:57.597Z,96785.69
2022-11-24T03:08:00.362Z,96786.52
2022-11-24T03:10:03.936Z,96787.55
2022-11-24T03:12:07.163Z,96786.67
2022-11-24T03:14:10.248Z,96784.86
2022-11-24T03:16:13.247Z,96784.70
2022-11-24T03:18:16.117Z,96785.95
2022-11-24T03:20:19.028Z,96789.11
2022-11-24T03:22:21.787Z,96791.88
2022-11-24T03:24:24.672Z,96793.27
2022-11-24T03:26:28.038Z,96791.24
2022-11-24T03:28:30.761Z,96792.52
2022-11-24T03:30:33.577Z,96792.14
2022-11-24T03:32:36.390Z,96795.38
2022-11-24T03:34:39.217Z,96797.79
2022-11-24T03:36:42.108Z,96797.18
2022-11-24T03:38:45.790Z,96794.55
2022-11-24T03:40:48.575Z,96793.59
2022-11-24T03:42:51.359Z,96789.17
2022-11-24T03:44:54.135Z,96791.29
2022-11-24T03:46:56.905Z,96792.52
2022-11-24T03:48:59.829Z,96792.73
2022-11-24T03:51:03.342Z,96794.21
2022-11-24T03:53:06.094Z,96794.23
2022-11-24T03:55:08.967Z,96798.41
2022-11-24T03:57:11.805Z,96803.06
2022-11-24T03:59:14.866Z,96805.77
2022-11-24T04:01:18.647Z,96810.73
2022-11-24T04:03:21.788Z,96812.67
2022-11-24T04:05:25.438Z,96811.53
2022-11-24T04:07:28.329Z,96811.46
2022-11-24T04:09:31.163Z,96809.84
2022-11-24T04:11:52.922Z,96809.48
2022-11-24T04:13:55.746Z,96810.41
2022-11-24T04:15:58.666Z,96815.98
2022-11-24T04:18:01.440Z,96818.91
2022-11-24T04:20:05.444Z,96822.24
2022-11-24T04:22:09.066Z,96823.48
2022-11-24T04:24:11.995Z,96825.54
2022-11-24T04:26:14.903Z,96828.30
2022-11-24T04:28:17.707Z,96829.21
2022-11-24T04:30:21.679Z,96835.77
2022-11-24T04:32:24.509Z,96838.56
2022-11-24T04:34:27.313Z,96843.32
2022-11-24T04:36:30.182Z,96847.39
2022-11-24T04:39:24.793Z,96851.29
2022-11-24T04:40:55.834Z,96850.48
2022-11-24T04:42:58.693Z,96849.89
2022-11-24T04:45:01.651Z,96853.69
2022-11-24T04:47:04.884Z,96856.70
2022-11-24T04:49:11.758Z,96856.21
2022-11-24T04:51:15.592Z,96854.86
2022-11-24T04:53:18.430Z,96856.78
2022-11-24T04:55:21.362Z,96856.62
2022-11-24T04:57:26.287Z,96857.92
2022-11-24T04:59:29.141Z,96860.54
2022-11-24T05:01:32.801Z,96858.59
2022-11-24T05:03:36.965Z,96856.45
2022-11-24T05:05:39.875Z,96862.23
2022-11-24T05:07:42.735Z,96865.17
2022-11-24T05:10:05.060Z,96867.14
2022-11-24T05:12:07.881Z,96866.85
2022-11-24T05:14:10.723Z,96869.95
2022-11-24T05:16:13.580Z,96870.25
2022-11-24T05:18:16.712Z,96871.58
2022-11-24T05:20:20.308Z,96873.74
2022-11-24T05:22:23.201Z,96875.54
2022-11-24T05:24:26.037Z,96874.48
2022-11-24T05:26:29.065Z,96877.36
2022-11-24T05:28:32.484Z,96876.70
2022-11-24T05:30:37.870Z,96877.88
2022-11-24T05:32:40.807Z,96873.34
2022-11-24T05:34:43.657Z,96877.00
2022-11-24T05:36:56.515Z,96876.77
2022-11-24T05:38:59.343Z,96876.70
2022-11-24T05:41:03.740Z,96876.04
2022-11-24T05:43:15.416Z,96874.39
2022-11-24T05:45:20.413Z,96879.30
2022-11-24T05:47:23.923Z,96884.60
2022-11-24T05:49:26.677Z,96885.52
2022-11-24T05:51:30.616Z,96895.25
2022-11-24T05:53:33.418Z,96893.65
2022-11-24T05:55:37.102Z,96897.63
2022-11-24T05:57:39.903Z,96902.99
2022-11-24T05:59:42.715Z,96902.33
2022-11-24T06:01:45.608Z,96900.12
2022-11-24T06:03:48.434Z,96900.13
2022-11-24T06:05:51.445Z,96905.75
2022-11-24T06:07:54.996Z,96902.98
2022-11-24T06:09:57.807Z,96906.17
2022-11-24T06:12:00.581Z,96910.42
2022-11-24T06:14:08.236Z,96913.17
2022-11-24T06:16:14.921Z,96909.35
2022-11-24T06:18:17.821Z,96912.89
2022-11-24T06:20:20.642Z,96915.43
2022-11-24T06:25:10.889Z,96922.58
2022-11-24T06:27:14.252Z,96927.19
2022-11-24T06:29:17.075Z,96929.48
2022-11-24T06:31:19.952Z,96933.19
2022-11-24T06:33:22.882Z,96936.67
2022-11-24T06:35:26.012Z,96938.45
2022-11-24T06:37:28.977Z,96937.06
2022-11-24T06:39:31.983Z,96934.91
2022-11-24T06:41:34.844Z,96938.02
2022-11-24T06:43:37.918Z,96932.95
2022-11-24T06:45:40.801Z,96938.84
2022-11-24T06:47:43.672Z,96943.18
2022-11-24T06:49:46.564Z,96941.59
2022-11-24T06:51:49.358Z,96941.39
2022-11-24T06:53:52.258Z,96939.46
2022-11-24T06:55:59.232Z,96946.85
2022-11-24T06:58:02.252Z,96946.91
2022-11-24T07:00:08.010Z,96951.95
2022-11-24T07:02:10.953Z,96956.39
2022-11-24T07:04:15.060Z,96959.47
2022-11-24T07:06:19.712Z,96962.63
2022-11-24T07:08:22.927Z,96967.27
2022-11-24T07:10:25.847Z,96962.24
2022-11-24T07:12:29.396Z,96963.79
2022-11-24T07:14:32.493Z,96970.20
2022-11-24T07:16:36.056Z,96974.31
2022-11-24T07:18:38.911Z,96980.30
2022-11-24T07:20:41.743Z,96983.73
2022-11-24T07:22:44.722Z,96984.62
2022-11-24T07:24:47.601Z,96986.59
2022-11-24T07:26:50.637Z,96988.39
2022-11-24T07:28:53.625Z,96990.59
2022-11-24T07:30:57.014Z,96993.03
2022-11-24T07:33:03.821Z,96990.39
2022-11-24T07:35:06.949Z,96993.49
2022-11-24T07:37:09.785Z,96992.09
2022-11-24T07:39:12.837Z,96992.05
2022-11-24T07:41:17.568Z,96994.80
2022-11-24T07:43:20.511Z,96997.98
2022-11-24T07:45:23.314Z,96999.05
2022-11-24T07:47:26.097Z,97000.97
2022-11-24T07:49:29.000Z,97003.80
2022-11-24T07:51:31.925Z,97004.51
2022-11-24T07:53:35.511Z,97004.02
2022-11-24T07:55:38.659Z,97006.24
2022-11-24T07:57:41.499Z,97001.46
2022-11-24T07:59:44.283Z,97003.95
2022-11-24T08:01:47.576Z,97006.50
2022-11-24T08:03:50.511Z,97010.00
2022-11-24T08:08:20.476Z,97014.34
2022-11-24T08:10:23.396Z,97017.58
2022-11-24T08:12:26.164Z,97015.52
2022-11-24T08:14:29.063Z,97018.77
2022-11-24T08:16:32.386Z,97021.50
2022-11-24T08:18:36.474Z,97024.27
2022-11-24T08:20:39.369Z,97031.84
2022-11-24T08:22:42.743Z,97030.77
2022-11-24T08:24:48.541Z,97033.14
2022-11-24T08:26:51.369Z,97035.85
2022-11-24T08:28:56.810Z,97035.72
2022-11-24T08:31:09.190Z,97036.31
2022-11-24T08:33:12.918Z,97044.68
2022-11-24T08:35:15.857Z,97047.43
2022-11-24T08:37:18.935Z,97047.46
2022-11-24T08:39:21.795Z,97046.83
2022-11-24T08:41:26.442Z,97042.04
2022-11-24T08:43:29.372Z,97046.84
2022-11-24T08:45:35.463Z,97046.39
2022-11-24T08:47:42.917Z,97051.95
2022-11-24T08:49:45.732Z,97058.62
2022-11-24T08:51:50.880Z,97058.66
2022-11-24T08:53:58.849Z,97061.60
2022-11-24T08:56:02.746Z,97057.42
2022-11-24T08:58:05.619Z,97056.90
2022-11-24T09:00:09.162Z,97062.35
2022-11-24T09:02:13.418Z,97063.54
2022-11-24T09:04:16.380Z,97066.48
2022-11-24T09:06:25.186Z,97068.06
2022-11-24T09:08:29.855Z,97061.92
2022-11-24T09:10:32.732Z,97061.87
2022-11-24T09:12:35.673Z,97063.21
2022-11-24T09:14:38.592Z,97061.43
2022-11-24T09:16:41.625Z,97062.41
2022-11-24T09:18:44.970Z,97062.80
2022-11-24T09:20:48.149Z,97062.95
2022-11-24T09:22:51.068Z,97061.47
2022-11-24T09:24:53.818Z,97063.20
2022-11-24T09:26:57.167Z,97061.90
2022-11-24T09:29:01.892Z,97058.96
2022-11-24T09:31:06.855Z,97061.46
2022-11-24T09:33:09.860Z,97061.67
2022-11-24T09:35:12.697Z,97061.09
2022-11-24T09:37:15.710Z,97064.11
2022-11-24T09:39:18.663Z,97060.77
2022-11-24T09:41:34.298Z,97061.45
2022-11-24T09:43:46.373Z,97057.80
2022-11-24T09:46:06.033Z,97057.27
2022-11-24T09:48:24.241Z,97060.46
2022-11-24T09:50:34.331Z,97063.86
2022-11-24T09:53:03.880Z,97064.84
2022-11-24T09:55:24.049Z,97063.05
2022-11-24T09:57:34.258Z,97063.48
2022-11-24T09:59:42.116Z,97066.16
2022-11-24T10:01:47.943Z,97062.89
2022-11-24T10:03:52.759Z,97066.30
2022-11-24T10:05:56.027Z,97062.50
2022-11-24T10:08:23.168Z,97059.27
2022-11-24T10:10:53.632Z,97057.01
2022-11-24T10:13:02.241Z,97056.91
2022-11-24T10:16:02.897Z,97059.09
2022-11-24T10:18:52.448Z,97063.68
2022-11-24T10:21:47.010Z,97067.36
2022-11-24T10:24:22.548Z,97064.41
2022-11-24T10:26:36.862Z,97072.20
2022-11-24T10:28:52.783Z,97069.13
2022-11-24T10:31:16.551Z,97066.88
2022-11-24T10:33:28.774Z,97070.84
2022-11-24T10:35:47.067Z,97070.81
2022-11-24T10:37:58.131Z,97071.48
2022-11-24T10:40:33.396Z,97071.16
2022-11-24T10:42:37.485Z,97072.98
2022-11-24T10:44:42.939Z,97069.84
2022-11-24T10:46:46.079Z,97075.86
2022-11-24T10:48:57.938Z,97079.19
2022-11-24T10:51:35.590Z,97080.70
2022-11-24T10:53:42.177Z,97083.46
2022-11-24T10:55:54.170Z,97080.39
2022-11-24T10:58:15.549Z,97078.70
2022-11-24T11:00:18.309Z,97079.61
2022-11-24T11:03:16.797Z,97077.05
2022-11-24T11:05:32.407Z,97079.60
2022-11-24T11:07:35.352Z,97080.20
2022-11-24T11:09:38.296Z,97080.61
2022-11-24T11:11:41.978Z,97085.34
2022-11-24T11:14:03.082Z,97084.64
2022-11-24T11:16:23.650Z,97084.73
2022-11-24T11:18:36.314Z,97085.96
2022-11-24T11:20:39.108Z,97085.22
2022-11-24T11:22:45.131Z,97082.60
2022-11-24T11:25:01.183Z,97082.71
2022-11-24T11:27:16.359Z,97086.86
2022-11-24T11:34:28.615Z,97085.98
2022-11-24T11:36:33.190Z,97087.34
2022-11-24T11:38:39.767Z,97087.56
2022-11-24T11:40:43.937Z,97089.62
2022-11-24T11:43:03.938Z,97088.39
2022-11-24T11:45:18.434Z,97090.98
2022-11-24T11:47:29.439Z,97094.36
2022-11-24T11:49:39.493Z,97097.80
2022-11-24T11:51:49.320Z,97100.67
2022-11-24T11:54:11.088Z,97099.86
2022-11-24T11:56:23.307Z,97096.30
2022-11-24T11:59:00.802Z,97100.94
2022-11-24T12:01:26.098Z,97104.63
2022-11-24T12:03:47.349Z,97112.42
2022-11-24T12:06:34.621Z,97107.86
2022-11-24T12:09:21.505Z,97106.04
2022-11-24T12:11:35.336Z,97108.96
2022-11-24T12:13:53.033Z,97109.38
2022-11-24T12:15:59.018Z,97114.04
2022-11-24T12:18:56.673Z,97112.70
2022-11-24T12:21:25.946Z,97113.14
2022-11-24T12:23:38.391Z,97116.33
2022-11-24T12:25:47.595Z,97116.83
2022-11-24T12:28:19.293Z,97118.52
2022-11-24T12:30:23.024Z,97117.89
2022-11-24T12:33:03.693Z,97114.61
2022-11-24T12:35:06.437Z,97118.60
2022-11-24T12:37:47.345Z,97113.98
2022-11-24T12:40:01.797Z,97118.11
2022-11-24T12:42:43.937Z,97121.66
2022-11-24T12:45:13.620Z,97128.08
2022-11-24T12:47:40.663Z,97130.13
2022-11-24T12:50:13.005Z,97133.63
2022-11-24T12:52:36.911Z,97134.83
2022-11-24T12:54:41.244Z,97135.27
2022-11-24T12:57:09.269Z,97132.21
2022-11-24T12:59:27.936Z,97134.21
2022-11-24T13:01:37.725Z,97136.20
2022-11-24T13:03:46.398Z,97136.80
2022-11-24T13:06:07.797Z,97139.67
2022-11-24T13:08:11.171Z,97142.02
2022-11-24T13:13:06.320Z,97141.11
2022-11-24T13:15:43.333Z,97144.92
2022-11-24T13:18:01.157Z,97146.30
2022-11-24T13:20:37.328Z,97146.40
2022-11-24T13:22:45.483Z,97144.50
2022-11-24T13:25:15.001Z,97144.93
2022-11-24T13:27:24.502Z,97145.84
2022-11-24T13:29:27.192Z,97146.84
2022-11-24T13:31:30.240Z,97149.31
2022-11-24T13:33:34.098Z,97153.79
2022-11-24T13:35:37.740Z,97156.25
2022-11-24T13:37:40.559Z,97159.70
2022-11-24T13:40:03.366Z,97156.95
2022-11-24T13:42:06.273Z,97155.06
2022-11-24T13:44:24.301Z,97159.95
2022-11-24T13:47:00.201Z,97161.67
2022-11-24T13:49:14.563Z,97163.14
2022-11-24T13:51:24.052Z,97167.28
2022-11-24T13:53:47.698Z,97172.37
2022-11-24T13:55:59.771Z,97176.03
2022-11-24T13:58:31.767Z,97183.36
2022-11-24T14:00:58.451Z,97182.30
2022-11-24T14:03:06.883Z,97180.23
2022-11-24T14:05:14.699Z,97186.59
2022-11-24T14:07:17.729Z,97185.86
2022-11-24T14:09:46.618Z,97191.04
2022-11-24T14:12:16.306Z,97192.65
2022-11-24T14:14:23.042Z,97194.44
2022-11-24T14:16:26.115Z,97196.02
2022-11-24T14:18:29.303Z,97197.50
2022-11-24T14:20:32.060Z,97202.06
2022-11-24T14:22:39.408Z,97203.90
2022-11-24T14:24:45.482Z,97209.05
2022-11-24T14:26:49.166Z,97214.02
2022-11-24T14:28:53.848Z,97215.85
2022-11-24T14:31:08.703Z,97218.34
2022-11-24T14:33:12.876Z,97216.44
2022-11-24T14:35:24.176Z,97217.80
2022-11-24T14:37:27.044Z,97218.95
2022-11-24T14:39:30.340Z,97227.52
2022-11-24T14:41:34.042Z,97227.81
2022-11-24T14:43:36.923Z,97231.15
2022-11-24T14:45:48.311Z,97231.45
2022-11-24T14:47:51.131Z,97227.84
2022-11-24T14:49:56.058Z,97228.38
2022-11-24T14:52:03.216Z,97229.21
2022-11-24T14:56:39.593Z,97231.89
2022-11-24T14:58:42.710Z,97234.10
2022-11-24T15:00:45.686Z,97237.88
2022-11-24T15:02:54.269Z,97235.88
2022-11-24T15:05:03.383Z,97237.54
2022-11-24T15:07:23.869Z,97241.21
2022-11-24T15:09:50.531Z,97245.61
2022-11-24T15:11:54.713Z,97250.86
2022-11-24T15:13:57.452Z,97253.84
2022-11-24T15:16:03.935Z,97252.20
2022-11-24T15:18:25.888Z,97253.05
2022-11-24T15:20:35.161Z,97255.09
2022-11-24T15:22:44.287Z,97253.28
2022-11-24T15:24:53.423Z,97255.91
2022-11-24T15:27:00.840Z,97254.11
2022-11-24T15:29:03.648Z,97255.55
2022-11-24T15:31:10.888Z,97258.63
2022-11-24T15:33:18.325Z,97260.53
2022-11-24T15:35:22.964Z,97263.58
2022-11-24T15:37:28.863Z,97267.94
2022-11-24T15:39:35.700Z,97272.71
2022-11-24T15:41:38.478Z,97274.55
2022-11-24T15:43:41.471Z,97279.92
2022-11-24T15:45:44.278Z,97276.17
2022-11-24T15:47:47.334Z,97277.83
2022-11-24T15:49:50.219Z,97275.90
2022-11-24T15:51:53.031Z,97278.30
2022-11-24T15:54:14.045Z,97281.15
2022-11-24T15:56:25.576Z,97285.35
2022-11-24T15:58:28.399Z,97285.15
2022-11-24T16:00:32.846Z,97282.20
2022-11-24T16:02:35.647Z,97284.97
2022-11-24T16:04:41.666Z,97285.11
2022-11-24T16:06:44.528Z,97285.66
2022-11-24T16:08:47.822Z,97285.67
2022-11-24T16:10:51.357Z,97288.02
2022-11-24T16:12:54.098Z,97292.26
2022-11-24T16:14:56.978Z,97295.63
2022-11-24T16:16:59.730Z,97297.70
2022-11-24T16:19:03.037Z,97300.88
2022-11-24T16:21:07.259Z,97297.34
2022-11-24T16:23:10.036Z,97300.65
2022-11-24T16:25:13.219Z,97301.08
2022-11-24T16:27:16.039Z,97303.60
2022-11-24T16:29:21.051Z,97305.86
2022-11-24T16:31:23.935Z,97310.06
2022-11-24T16:33:29.000Z,97310.15
2022-11-24T16:35:31.879Z,97314.32
2022-11-24T16:37:34.754Z,97316.19
2022-11-24T16:39:37.507Z,97318.75
2022-11-24T16:41:40.857Z,97316.25
2022-11-24T16:53:24.925Z,97311.34
2022-11-24T16:55:27.670Z,97316.78
2022-11-24T16:57:30.461Z,97320.42
2022-11-24T16:59:33.973Z,97319.30
2022-11-24T17:01:37.334Z,97322.36
2022-11-24T17:03:41.115Z,97321.17
2022-11-24T17:05:44.007Z,97324.64
2022-11-24T17:07:46.844Z,97325.56
2022-11-24T17:09:49.678Z,97326.26
2022-11-24T17:11:52.564Z,97330.02
2022-11-24T17:13:57.931Z,97331.56
2022-11-24T17:16:08.916Z,97329.48
2022-11-24T17:18:28.365Z,97337.86
2022-11-24T17:20:31.644Z,97336.84
2022-11-24T17:22:34.465Z,97338.42
2022-11-24T17:24:37.293Z,97342.62
2022-11-24T17:26:44.667Z,97342.13
2022-11-24T17:28:50.475Z,97345.90
2022-11-24T17:30:53.312Z,97347.58
2022-11-24T17:32:57.336Z,97347.88
2022-11-24T17:35:00.141Z,97350.58
2022-11-24T17:37:03.675Z,97349.98
2022-11-24T17:39:07.368Z,97351.81
2022-11-24T17:41:11.316Z,97355.52
2022-11-24T17:43:14.138Z,97356.00
2022-11-24T17:45:17.222Z,97359.77
2022-11-24T17:47:19.989Z,97361.61
2022-11-24T17:49:23.388Z,97363.19
2022-11-24T17:51:27.176Z,97368.65
2022-11-24T17:53:30.941Z,97367.02
2022-11-24T17:55:33.744Z,97368.98
2022-11-24T17:57:36.708Z,97369.70
2022-11-24T17:59:39.476Z,97371.02
2022-11-24T18:01:42.458Z,97373.94
2022-11-24T18:03:48.985Z,97378.27
2022-11-24T18:05:56.058Z,97377.73
2022-11-24T18:07:59.921Z,97379.65
2022-11-24T18:10:03.372Z,97384.57
2022-11-24T18:12:07.317Z,97387.22
2022-11-24T18:14:10.199Z,97389.71
2022-11-24T18:16:13.956Z,97392.45
2022-11-24T18:18:16.885Z,97395.80
2022-11-24T18:20:19.782Z,97395.97
2022-11-24T18:22:43.017Z,97394.69
2022-11-24T18:24:45.525Z,97395.48
2022-11-24T18:26:48.278Z,97396.52
2022-11-24T18:28:51.333Z,97397.27
2022-11-24T18:31:01.275Z,97399.46
2022-11-24T18:33:04.090Z,97398.66
2022-11-24T18:35:07.343Z,97395.58
2022-11-24T18:37:13.510Z,97393.63
2022-11-24T18:39:18.219Z,97394.23
2022-11-24T18:41:22.328Z,97397.20
2022-11-24T18:43:27.511Z,97392.42
2022-11-24T18:45:30.655Z,97398.02
2022-11-24T18:47:33.644Z,97397.71
2022-11-24T18:49:36.490Z,97400.38
2022-11-24T18:51:39.284Z,97401.64
2022-11-24T18:53:44.060Z,97403.66
2022-11-24T18:56:05.404Z,97409.59
2022-11-24T18:58:08.227Z,97410.08
2022-11-24T19:00:11.695Z,97410.16
2022-11-24T19:02:14.637Z,97413.71
2022-11-24T19:04:17.545Z,97414.27
2022-11-24T19:06:29.048Z,97416.07
2022-11-24T19:08:32.054Z,97418.96
2022-11-24T19:10:39.170Z,97423.78
2022-11-24T19:12:42.634Z,97426.73
2022-11-24T19:14:45.544Z,97429.09
2022-11-24T19:16:48.529Z,97428.84
2022-11-24T19:18:54.326Z,97426.13
2022-11-24T19:20:58.285Z,97431.13
2022-11-24T19:23:01.262Z,97427.75
2022-11-24T19:25:04.422Z,97432.98
2022-11-24T19:27:08.006Z,97431.45
2022-11-24T19:29:11.342Z,97437.09
2022-11-24T19:31:15.958Z,97440.21
2022-11-24T19:33:19.057Z,97441.15
2022-11-24T19:35:21.978Z,97443.15
2022-11-24T19:37:24.746Z,97444.30
2022-11-24T19:39:27.904Z,97446.95
2022-11-24T19:41:32.087Z,97447.41
2022-11-24T19:43:35.217Z,97449.45
2022-11-24T19:45:44.025Z,97450.30
2022-11-24T19:47:46.959Z,97449.14
2022-11-24T19:49:49.856Z,97452.79
2022-11-24T19:51:53.574Z,97452.02
2022-11-24T19:53:57.029Z,97453.77
2022-11-24T19:56:07.576Z,97454.40
2022-11-24T19:58:10.384Z,97453.61
2022-11-24T20:00:14.709Z,97452.16
2022-11-24T20:02:18.362Z,97454.05
2022-11-24T20:04:21.524Z,97451.39
2022-11-24T20:06:25.878Z,97456.76
2022-11-24T20:08:31.231Z,97454.08
2022-11-24T20:10:34.015Z,97455.05
2022-11-24T20:12:36.782Z,97459.90
2022-11-24T20:14:39.848Z,97462.13
2022-11-24T20:16:43.452Z,97463.44
2022-11-24T20:18:47.726Z,97466.77
2022-11-24T20:20:50.573Z,97470.52
2022-11-24T20:22:53.582Z,97479.34
2022-11-24T20:24:56.451Z,97481.40
2022-11-24T20:27:00.157Z,97483.80
2022-11-24T20:29:04.091Z,97486.95
2022-11-24T20:31:13.177Z,97481.39
2022-11-24T20:33:16.139Z,97482.73
2022-11-24T20:35:19.073Z,97485.09
2022-11-24T20:37:22.727Z,97481.48
2022-11-24T20:39:27.849Z,97484.52
2022-11-24T20:41:34.065Z,97485.66
2022-11-24T20:43:38.224Z,97486.55
2022-11-24T20:45:41.159Z,97490.81
2022-11-24T20:47:43.991Z,97488.71
2022-11-24T20:49:46.839Z,97490.39
2022-11-24T20:51:54.507Z,97496.17
2022-11-24T20:54:00.698Z,97496.77
2022-11-24T20:56:26.431Z,97501.03
2022-11-24T20:58:29.286Z,97498.32
2022-11-24T21:00:32.115Z,97500.84
2022-11-24T21:02:35.030Z,97498.61
2022-11-24T21:04:38.349Z,97502.06
2022-11-24T21:06:41.737Z,97500.78
2022-11-24T21:08:44.790Z,97502.20
2022-11-24T21:10:58.825Z,97503.02
2022-11-24T21:13:01.687Z,97503.82
2022-11-24T21:15:07.676Z,97499.45
2022-11-24T21:17:10.730Z,97501.65
2022-11-24T21:19:15.050Z,97499.02
2022-11-24T21:21:20.068Z,97498.04
2022-11-24T21:23:22.848Z,97499.14
2022-11-24T21:25:25.688Z,97498.47
2022-11-24T21:27:28.863Z,97504.56
2022-11-24T21:29:31.695Z,97506.20
2022-11-24T21:31:37.146Z,97509.19
2022-11-24T21:34:00.230Z,97510.34
2022-11-24T21:36:04.939Z,97511.96
2022-11-24T21:38:07.791Z,97511.96
2022-11-24T21:40:11.151Z,97517.34
2022-11-24T21:42:13.974Z,97520.41
2022-11-24T21:44:16.855Z,97519.35
2022-11-24T21:46:19.840Z,97526.01
2022-11-24T21:48:22.689Z,97524.59
2022-11-24T21:50:25.698Z,97526.80
2022-11-24T21:52:28.472Z,97528.37
2022-11-24T21:54:31.200Z,97534.60
2022-11-24T21:56:34.056Z,97536.14
2022-11-24T21:58:36.815Z,97539.36
2022-11-24T22:00:39.720Z,97542.35
2022-11-24T22:02:57.805Z,97542.66
2022-11-24T22:06:35.143Z,97540.04
2022-11-24T22:08:38.271Z,97542.62
2022-11-24T22:10:41.026Z,97545.90
2022-11-24T22:12:43.919Z,97550.00
2022-11-24T22:14:46.782Z,97548.17
2022-11-24T22:16:49.673Z,97548.20
2022-11-24T22:18:52.825Z,97552.54
2022-11-24T22:20:56.364Z,97555.23
2022-11-24T22:22:59.179Z,97555.18
2022-11-24T22:25:01.947Z,97555.45
2022-11-24T22:27:04.771Z,97554.38
2022-11-24T22:29:08.639Z,97558.57
2022-11-24T22:31:14.591Z,97561.33
2022-11-24T22:33:17.407Z,97562.73
2022-11-24T22:35:20.239Z,97564.33
2022-11-24T22:37:23.123Z,97565.91
2022-11-24T22:39:25.899Z,97565.31
2022-11-24T22:41:30.032Z,97570.52
2022-11-24T22:43:34.464Z,97569.13
2022-11-24T22:45:37.407Z,97571.98
2022-11-24T22:47:40.239Z,97574.17
2022-11-24T22:49:43.008Z,97576.49
2022-11-24T22:51:45.794Z,97574.95
2022-11-24T22:53:50.576Z,97574.82
2022-11-24T22:55:53.353Z,97574.50
2022-11-24T22:57:57.201Z,97576.60
2022-11-24T23:00:00.083Z,97569.77
2022-11-24T23:02:02.856Z,97571.80
2022-11-24T23:04:05.730Z,97573.01
2022-11-24T23:06:12.278Z,97568.07
2022-11-24T23:08:15.093Z,97568.58
2022-11-24T23:10:18.142Z,97568.20
2022-11-24T23:12:20.923Z,97570.75
2022-11-24T23:14:23.703Z,97572.84
2022-11-24T23:16:26.792Z,97572.77
2022-11-24T23:18:30.151Z,97570.27
2022-11-24T23:20:35.220Z,97570.98
2022-11-24T23:22:38.072Z,97568.70
2022-11-24T23:24:41.029Z,97571.52
2022-11-24T23:26:43.852Z,97575.60
2022-11-24T23:28:47.177Z,97577.79
2022-11-24T23:30:49.973Z,97581.27
2022-11-24T23:32:52.790Z,97583.26
2022-11-24T23:34:55.585Z,97581.48
2022-11-24T23:36:58.306Z,97581.88
2022-11-24T23:39:06.577Z,97582.17
2022-11-24T23:41:12.455Z,97581.67
2022-11-24T23:43:15.266Z,97584.59
2022-11-24T23:45:18.013Z,97584.31
2022-11-24T23:47:20.821Z,97584.15
2022-11-24T23:49:23.583Z,97579.91
2022-11-24T23:51:29.123Z,97581.11
2022-11-24T23:53:35.737Z,97585.20
2022-11-24T23:55:38.470Z,97586.40
2022-11-24T23:57:41.240Z,97585.69
2022-11-24T23:59:44.087Z,97587.23
